Terminal Aerodrome Forecast
Issued by NWS

Home | Current Version | Previous Version | Graphics & Text | Print | Product List | Glossary On
Versions: 1 2 3 4 5 6 7 8 9 10 11 12 13 14 15 16 17 18 19 20 21 22 23 24 25
861
FTUS43 KABR 222313 AAA
TAFPIR
TAF AMD
KPIR 222313Z 2223/2318 33010KT P6SM SCT060 BKN080 OVC100
     FM230200 34009KT P6SM BKN100
     FM231400 34013KT P6SM BKN060
     FM231700 35020G28KT P6SM BKN050=

USA.gov is the U.S. government's official web portal to all federal, state and local government web resources and services.